createdAt,value
2022-11-20T00:00:10.168Z,19.17
2022-11-20T00:02:43.569Z,20.98
2022-11-20T00:05:14.411Z,22.58
2022-11-20T00:07:45.637Z,23.67
2022-11-20T00:10:18.916Z,23.33
2022-11-20T00:12:53.447Z,23.95
2022-11-20T00:15:26.560Z,24.45
2022-11-20T00:17:57.401Z,24.17
2022-11-20T00:20:28.301Z,23.55
2022-11-20T00:22:59.428Z,24.33
2022-11-20T00:25:30.168Z,24.88
2022-11-20T00:28:05.469Z,24.52
2022-11-20T00:30:36.247Z,23.33
2022-11-20T00:33:07.075Z,24.95
2022-11-20T00:35:37.803Z,24.05
2022-11-20T00:38:09.586Z,23.65
2022-11-20T00:40:40.307Z,24.48
2022-11-20T00:43:14.074Z,26.55
2022-11-20T00:45:44.741Z,26.58
2022-11-20T00:48:15.467Z,26.55
2022-11-20T00:50:46.340Z,26.98
2022-11-20T00:53:18.293Z,25.88
2022-11-20T00:55:59.090Z,26.50
2022-11-20T00:58:34.281Z,25.65
2022-11-20T01:01:06.961Z,26.27
2022-11-20T01:03:38.922Z,27.13
2022-11-20T01:06:11.927Z,23.80
2022-11-20T01:08:43.560Z,23.50
2022-11-20T01:11:18.281Z,24.15
2022-11-20T01:13:53.394Z,26.02
2022-11-20T01:16:28.965Z,23.30
2022-11-20T01:19:04.514Z,22.83
2022-11-20T01:21:37.642Z,22.00
2022-11-20T01:24:10.726Z,22.27
2022-11-20T01:26:43.779Z,20.85
2022-11-20T01:29:19.500Z,22.33
2022-11-20T01:31:51.008Z,20.75
2022-11-20T01:34:23.705Z,21.65
2022-11-20T01:36:55.200Z,22.40
2022-11-20T01:39:27.454Z,20.45
2022-11-20T01:42:12.558Z,21.95
2022-11-20T01:45:00.974Z,21.08
2022-11-20T01:47:38.201Z,20.85
2022-11-20T01:50:24.767Z,21.25
2022-11-20T01:53:02.468Z,19.70
2022-11-20T01:55:36.954Z,22.30
2022-11-20T01:58:09.779Z,22.42
2022-11-20T02:00:46.054Z,21.65
2022-11-20T02:03:20.573Z,21.15
2022-11-20T02:05:55.494Z,20.77
2022-11-20T02:08:27.521Z,21.05
2022-11-20T02:10:58.383Z,21.80
2022-11-20T02:13:47.670Z,21.92
2022-11-20T02:16:25.753Z,20.58
2022-11-20T02:18:58.958Z,19.95
2022-11-20T02:21:37.043Z,19.70
2022-11-20T02:24:13.202Z,20.50
2022-11-20T02:26:49.985Z,20.73
2022-11-20T02:29:28.406Z,20.67
2022-11-20T02:32:00.866Z,20.52
2022-11-20T02:34:31.757Z,19.77
2022-11-20T02:37:03.809Z,20.30
2022-11-20T02:39:37.139Z,18.77
2022-11-20T02:42:08.106Z,20.15
2022-11-20T02:44:38.842Z,20.52
2022-11-20T02:47:09.684Z,19.50
2022-11-20T02:49:44.405Z,18.85
2022-11-20T02:52:15.247Z,18.92
2022-11-20T02:54:48.611Z,19.50
2022-11-20T02:59:54.315Z,18.65
2022-11-20T03:02:27.389Z,18.63
2022-11-20T03:05:04.706Z,19.73
2022-11-20T03:07:35.457Z,18.30
2022-11-20T03:10:10.341Z,20.35
2022-11-20T03:12:41.100Z,20.63
2022-11-20T03:15:13.197Z,19.77
2022-11-20T03:17:43.929Z,17.60
2022-11-20T03:20:15.784Z,17.95
2022-11-20T03:22:47.738Z,17.35
2022-11-20T03:25:21.246Z,17.48
2022-11-20T03:27:53.172Z,17.35
2022-11-20T03:30:29.263Z,17.90
2022-11-20T03:33:03.057Z,16.65
2022-11-20T03:35:33.846Z,17.42
2022-11-20T03:38:04.725Z,17.13
2022-11-20T03:40:38.458Z,17.40
2022-11-20T03:43:09.298Z,16.23
2022-11-20T03:45:40.053Z,16.88
2022-11-20T03:48:11.069Z,17.70
2022-11-20T03:50:43.020Z,17.90
2022-11-20T03:53:15.899Z,17.08
2022-11-20T03:55:54.106Z,17.55
2022-11-20T03:58:24.829Z,17.67
2022-11-20T04:00:57.483Z,17.45
2022-11-20T04:03:29.036Z,16.38
2022-11-20T04:06:04.833Z,16.33
2022-11-20T04:08:35.707Z,17.27
2022-11-20T04:11:16.812Z,17.27
2022-11-20T04:13:50.838Z,18.58
2022-11-20T04:16:22.511Z,17.95
2022-11-20T04:18:57.717Z,18.48
2022-11-20T04:21:30.761Z,18.15
2022-11-20T04:24:02.132Z,17.75
2022-11-20T04:26:35.755Z,19.77
2022-11-20T04:29:08.355Z,18.98
2022-11-20T04:31:39.114Z,17.95
2022-11-20T04:34:11.286Z,18.67
2022-11-20T04:36:43.395Z,18.45
2022-11-20T04:39:19.057Z,19.75
2022-11-20T04:42:16.193Z,18.50
2022-11-20T04:44:46.955Z,17.98
2022-11-20T04:47:19.312Z,16.95
2022-11-20T04:49:50.538Z,17.90
2022-11-20T04:52:21.480Z,17.42
2022-11-20T04:54:53.799Z,16.92
2022-11-20T04:57:27.228Z,18.02
2022-11-20T04:59:58.006Z,16.30
2022-11-20T05:02:29.221Z,18.17
2022-11-20T05:05:00.101Z,18.05
2022-11-20T05:07:30.876Z,18.60
2022-11-20T05:10:01.688Z,20.52
2022-11-20T05:12:35.418Z,21.20
2022-11-20T05:15:06.823Z,19.83
2022-11-20T05:17:38.095Z,19.30
2022-11-20T05:20:10.149Z,20.65
2022-11-20T05:22:43.392Z,21.42
2022-11-20T05:25:14.453Z,19.52
2022-11-20T05:27:47.823Z,20.52
2022-11-20T05:30:20.609Z,20.30
2022-11-20T05:32:51.430Z,19.70
2022-11-20T05:35:22.554Z,20.40
2022-11-20T05:37:53.395Z,21.20
2022-11-20T05:40:24.150Z,20.00
2022-11-20T05:42:57.678Z,20.85
2022-11-20T05:45:30.934Z,18.50
2022-11-20T05:48:03.242Z,19.92
2022-11-20T05:50:34.135Z,19.10
2022-11-20T05:53:04.971Z,19.80
2022-11-20T05:55:35.714Z,19.17
2022-11-20T05:58:09.067Z,20.05
2022-11-20T06:00:40.123Z,18.75
2022-11-20T06:03:10.839Z,18.85
2022-11-20T06:05:41.566Z,18.90
2022-11-20T06:08:12.349Z,19.05
2022-11-20T06:10:43.569Z,19.73
2022-11-20T06:13:16.910Z,19.67
2022-11-20T06:15:52.542Z,18.27
2022-11-20T06:18:23.933Z,18.17
2022-11-20T06:21:03.556Z,18.20
2022-11-20T06:23:34.857Z,19.00
2022-11-20T06:26:06.811Z,18.00
2022-11-20T06:28:40.599Z,17.58
2022-11-20T06:31:15.377Z,17.25
2022-11-20T06:33:47.009Z,17.95
2022-11-20T06:36:19.702Z,17.67
2022-11-20T06:38:54.022Z,18.15
2022-11-20T06:41:26.784Z,16.67
2022-11-20T06:44:03.168Z,16.65
2022-11-20T06:46:33.950Z,18.15
2022-11-20T06:49:04.708Z,16.45
2022-11-20T06:51:37.831Z,16.50
2022-11-20T06:54:09.582Z,16.60
2022-11-20T06:56:40.881Z,15.73
2022-11-20T06:59:14.334Z,16.90
2022-11-20T07:01:45.083Z,17.60
2022-11-20T07:04:17.278Z,17.98
2022-11-20T07:06:48.347Z,16.70
2022-11-20T07:09:19.255Z,16.92
2022-11-20T07:11:50.015Z,16.77
2022-11-20T07:14:23.417Z,17.08
2022-11-20T07:16:54.868Z,16.23
2022-11-20T07:19:25.630Z,17.83
2022-11-20T07:21:58.756Z,16.33
2022-11-20T07:24:29.612Z,16.55
2022-11-20T07:27:00.368Z,18.00
2022-11-20T07:29:33.811Z,17.67
2022-11-20T07:32:04.588Z,17.85
2022-11-20T07:34:38.137Z,16.67
2022-11-20T07:37:10.457Z,18.33
2022-11-20T07:42:20.656Z,17.75
2022-11-20T07:44:56.401Z,18.33
2022-11-20T07:47:27.198Z,16.90
2022-11-20T07:49:57.990Z,16.88
2022-11-20T07:52:31.608Z,17.35
2022-11-20T07:55:02.440Z,17.00
2022-11-20T07:57:33.536Z,16.65
2022-11-20T08:00:08.228Z,17.15
2022-11-20T08:02:41.187Z,16.08
2022-11-20T08:05:13.102Z,17.15
2022-11-20T08:07:45.525Z,20.85
2022-11-20T08:10:18.572Z,18.25
2022-11-20T08:13:02.660Z,18.60
2022-11-20T08:15:36.513Z,18.90
2022-11-20T08:21:00.990Z,20.50
2022-11-20T08:23:31.768Z,19.92
2022-11-20T08:26:02.501Z,19.90
2022-11-20T08:28:36.143Z,19.25
2022-11-20T08:31:10.698Z,20.40
2022-11-20T08:33:42.214Z,19.25
2022-11-20T08:36:15.658Z,19.27
2022-11-20T08:38:50.315Z,20.00
2022-11-20T08:41:29.030Z,18.20
2022-11-20T08:44:03.005Z,19.15
2022-11-20T08:46:41.965Z,17.83
2022-11-20T08:49:14.726Z,18.30
2022-11-20T08:54:32.450Z,19.52
2022-11-20T08:57:03.385Z,20.48
2022-11-20T09:00:04.542Z,19.30
2022-11-20T09:02:28.072Z,18.42
2022-11-20T09:05:03.151Z,18.75
2022-11-20T09:10:24.141Z,20.10
2022-11-20T09:12:56.926Z,19.65
2022-11-20T09:15:28.474Z,18.77
2022-11-20T09:18:02.926Z,18.73
2022-11-20T09:20:34.140Z,17.73
2022-11-20T09:23:07.793Z,17.30
2022-11-20T09:25:38.666Z,18.20
2022-11-20T09:28:11.143Z,16.73
2022-11-20T09:30:42.124Z,18.00
2022-11-20T09:33:15.482Z,17.45
2022-11-20T09:35:47.215Z,18.65
2022-11-20T09:38:18.095Z,17.30
2022-11-20T09:40:56.483Z,18.00
2022-11-20T09:43:43.502Z,16.90
2022-11-20T09:46:22.626Z,18.92
2022-11-20T09:49:09.318Z,17.83
2022-11-20T09:51:50.139Z,15.48
2022-11-20T09:54:22.773Z,16.48
2022-11-20T09:56:57.253Z,15.50
2022-11-20T09:59:37.275Z,15.63
2022-11-20T10:02:20.258Z,16.08
2022-11-20T10:05:00.502Z,14.95
2022-11-20T10:07:37.974Z,15.13
2022-11-20T10:10:19.394Z,15.07
2022-11-20T10:13:04.598Z,15.07
2022-11-20T10:15:49.093Z,15.13
2022-11-20T10:18:34.902Z,15.23
2022-11-20T10:21:16.955Z,15.48
2022-11-20T10:24:05.219Z,13.97
2022-11-20T10:26:46.612Z,14.57
2022-11-20T10:29:20.974Z,15.10
2022-11-20T10:31:55.892Z,11.57
2022-11-20T10:34:30.554Z,11.80
2022-11-20T10:37:12.343Z,10.97
2022-11-20T10:39:50.711Z,9.90
2022-11-20T10:42:30.334Z,11.07
2022-11-20T10:45:13.746Z,11.70
2022-11-20T10:47:44.526Z,11.67
2022-11-20T10:50:22.905Z,12.30
2022-11-20T10:53:08.152Z,10.50
2022-11-20T10:55:48.921Z,10.77
2022-11-20T10:58:26.331Z,10.33
2022-11-20T11:01:08.210Z,12.20
2022-11-20T11:03:39.769Z,13.10
2022-11-20T11:06:18.363Z,10.47
2022-11-20T11:08:55.314Z,11.63
2022-11-20T11:11:29.917Z,11.20
2022-11-20T11:14:08.982Z,10.13
2022-11-20T11:16:44.843Z,9.87
2022-11-20T11:19:20.123Z,11.10
2022-11-20T11:21:56.350Z,9.57
2022-11-20T11:24:41.630Z,10.43
2022-11-20T11:27:18.850Z,11.53
2022-11-20T11:29:52.059Z,10.17
2022-11-20T11:32:28.192Z,10.30
2022-11-20T11:35:07.343Z,11.90
2022-11-20T11:37:40.129Z,11.97
2022-11-20T11:40:23.970Z,11.50
2022-11-20T11:43:00.186Z,10.70
2022-11-20T11:45:28.860Z,10.47
2022-11-20T11:48:04.078Z,9.73
2022-11-20T11:50:34.943Z,11.80
2022-11-20T11:53:15.929Z,11.50
2022-11-20T11:55:51.628Z,12.13
2022-11-20T11:58:38.761Z,12.60
2022-11-20T12:01:21.478Z,11.80
2022-11-20T12:03:59.258Z,11.60
2022-11-20T12:06:32.524Z,10.50
2022-11-20T12:09:07.809Z,11.00
2022-11-20T12:11:47.562Z,9.60
2022-11-20T12:14:25.072Z,11.47
2022-11-20T12:16:58.596Z,11.50
2022-11-20T12:19:34.193Z,10.43
2022-11-20T12:22:16.860Z,10.77
2022-11-20T12:24:55.855Z,9.37
2022-11-20T12:28:05.899Z,8.50
2022-11-20T12:30:44.877Z,10.20
2022-11-20T12:33:41.775Z,9.63
2022-11-20T12:36:27.529Z,10.13
2022-11-20T12:39:25.885Z,9.13
2022-11-20T12:42:33.135Z,9.17
2022-11-20T12:45:26.577Z,9.10
2022-11-20T12:48:23.602Z,10.23
2022-11-20T12:51:15.084Z,10.00
2022-11-20T12:54:01.470Z,9.77
2022-11-20T12:56:44.085Z,10.20
2022-11-20T12:59:36.580Z,10.63
2022-11-20T13:02:23.879Z,10.33
2022-11-20T13:05:19.137Z,10.60
2022-11-20T13:07:52.201Z,10.20
2022-11-20T13:10:32.238Z,11.23
2022-11-20T13:13:11.194Z,11.93
2022-11-20T13:15:52.385Z,10.70
2022-11-20T13:18:28.033Z,11.83
2022-11-20T13:21:01.421Z,11.77
2022-11-20T13:23:35.651Z,10.60
2022-11-20T13:26:18.563Z,11.13
2022-11-20T13:28:50.705Z,12.37
2022-11-20T13:31:35.263Z,11.40
2022-11-20T13:34:10.884Z,11.67
2022-11-20T13:36:53.565Z,11.00
2022-11-20T13:39:31.175Z,11.83
2022-11-20T13:42:03.863Z,11.63
2022-11-20T13:47:25.194Z,10.73
2022-11-20T13:50:00.901Z,12.80
2022-11-20T13:52:44.005Z,11.87
2022-11-20T13:55:25.154Z,11.20
2022-11-20T13:58:30.036Z,10.70
2022-11-20T14:01:05.122Z,10.60
2022-11-20T14:04:05.095Z,11.50
2022-11-20T14:06:34.119Z,11.37
2022-11-20T14:09:07.092Z,10.73
2022-11-20T14:11:39.124Z,10.13
2022-11-20T14:14:20.144Z,10.70
2022-11-20T14:16:51.852Z,10.70
2022-11-20T14:19:34.009Z,12.27
2022-11-20T14:22:20.956Z,12.40
2022-11-20T14:24:53.068Z,12.20
2022-11-20T14:27:25.239Z,11.25
2022-11-20T14:29:56.388Z,12.70
2022-11-20T14:32:36.467Z,15.33
2022-11-20T14:35:20.042Z,13.03
2022-11-20T14:37:53.668Z,12.73
2022-11-20T14:40:36.589Z,12.90
2022-11-20T14:43:21.187Z,12.50
2022-11-20T14:46:00.339Z,11.97
2022-11-20T14:48:35.604Z,12.83
2022-11-20T14:51:06.546Z,12.70
2022-11-20T14:53:40.035Z,13.83
2022-11-20T14:56:14.187Z,13.23
2022-11-20T14:58:45.171Z,11.90
2022-11-20T15:01:18.193Z,12.03
2022-11-20T15:04:03.763Z,11.23
2022-11-20T15:06:34.658Z,11.90
2022-11-20T15:09:19.795Z,12.57
2022-11-20T15:11:59.021Z,12.73
2022-11-20T15:14:36.157Z,12.80
2022-11-20T15:17:06.936Z,13.53
2022-11-20T15:19:38.070Z,12.57
2022-11-20T15:22:17.226Z,14.43
2022-11-20T15:24:51.147Z,12.73
2022-11-20T15:27:22.423Z,12.50
2022-11-20T15:29:56.337Z,13.50
2022-11-20T15:32:31.059Z,14.17
2022-11-20T15:35:03.795Z,14.20
2022-11-20T15:37:37.076Z,13.90
2022-11-20T15:40:11.886Z,14.33
2022-11-20T15:43:02.644Z,14.00
2022-11-20T15:45:38.433Z,14.83
2022-11-20T15:48:15.233Z,15.50
2022-11-20T15:50:53.304Z,14.23
2022-11-20T15:53:24.081Z,15.70
2022-11-20T15:55:58.650Z,15.50
2022-11-20T15:58:32.414Z,15.07
2022-11-20T16:01:03.316Z,16.40
2022-11-20T16:03:34.273Z,15.53
2022-11-20T16:06:05.120Z,14.53
2022-11-20T16:08:36.238Z,16.43
2022-11-20T16:11:10.391Z,15.90
2022-11-20T16:13:55.522Z,15.50
2022-11-20T16:16:29.693Z,15.60
2022-11-20T16:19:01.234Z,17.20
2022-11-20T16:21:32.708Z,16.20
2022-11-20T16:24:04.383Z,17.23
2022-11-20T16:26:38.968Z,17.10
2022-11-20T16:29:11.096Z,16.30
2022-11-20T16:31:41.908Z,18.00
2022-11-20T16:34:15.713Z,17.80
2022-11-20T16:36:47.997Z,17.80
2022-11-20T16:39:23.441Z,17.33
2022-11-20T16:41:57.367Z,19.10
2022-11-20T16:44:28.647Z,20.00
2022-11-20T16:46:59.624Z,21.07
2022-11-20T16:49:33.231Z,21.83
2022-11-20T16:52:04.272Z,19.47
2022-11-20T16:54:36.182Z,18.90
2022-11-20T16:57:09.564Z,20.23
2022-11-20T16:59:40.639Z,18.87
2022-11-20T17:02:12.393Z,20.70
2022-11-20T17:04:44.715Z,20.77
2022-11-20T17:07:15.797Z,20.80
2022-11-20T17:09:46.773Z,20.10
2022-11-20T17:12:20.163Z,20.53
2022-11-20T17:14:51.167Z,20.10
2022-11-20T17:17:22.522Z,21.70
2022-11-20T17:19:53.290Z,22.17
2022-11-20T17:22:24.055Z,20.30
2022-11-20T17:24:54.750Z,21.03
2022-11-20T17:27:33.693Z,24.77
2022-11-20T17:30:05.660Z,23.47
2022-11-20T17:32:36.797Z,23.90
2022-11-20T17:35:09.114Z,58.50
2022-11-20T17:37:39.882Z,31.60
2022-11-20T17:40:11.261Z,25.83
2022-11-20T17:42:44.889Z,25.00
2022-11-20T17:45:15.708Z,25.33
2022-11-20T17:47:46.652Z,24.37
2022-11-20T17:50:17.518Z,24.57
2022-11-20T17:52:48.221Z,26.10
2022-11-20T17:55:19.136Z,24.40
2022-11-20T17:57:55.048Z,25.87
2022-11-20T18:00:30.618Z,25.93
2022-11-20T18:03:01.339Z,26.13
2022-11-20T18:05:32.099Z,27.83
2022-11-20T18:08:03.377Z,27.27
2022-11-20T18:10:37.250Z,29.63
2022-11-20T18:13:10.600Z,30.60
2022-11-20T18:15:41.766Z,27.57
2022-11-20T18:18:13.128Z,28.87
2022-11-20T18:20:43.840Z,28.73
2022-11-20T18:23:14.631Z,26.00
2022-11-20T18:25:47.499Z,26.40
2022-11-20T18:28:21.173Z,27.20
2022-11-20T18:30:51.996Z,21.77
2022-11-20T18:33:28.604Z,24.47
2022-11-20T18:35:59.476Z,20.63
2022-11-20T18:38:30.158Z,21.10
2022-11-20T18:41:03.776Z,18.53
2022-11-20T18:44:01.328Z,18.23
2022-11-20T18:46:33.215Z,16.27
2022-11-20T18:49:06.154Z,15.80
2022-11-20T18:51:39.313Z,15.63
2022-11-20T18:54:11.716Z,15.80
2022-11-20T18:56:42.986Z,16.37
2022-11-20T18:59:18.462Z,15.73
2022-11-20T19:01:49.644Z,15.00
2022-11-20T19:04:23.090Z,15.20
2022-11-20T19:06:56.329Z,14.07
2022-11-20T19:09:29.003Z,12.03
2022-11-20T19:12:01.851Z,13.23
2022-11-20T19:14:35.336Z,10.13
2022-11-20T19:17:07.147Z,11.17
2022-11-20T19:19:38.379Z,15.20
2022-11-20T19:22:13.069Z,14.73
2022-11-20T19:24:44.195Z,14.23
2022-11-20T19:27:14.963Z,14.30
2022-11-20T19:29:48.402Z,14.47
2022-11-20T19:32:21.615Z,12.20
2022-11-20T19:34:52.319Z,11.90
2022-11-20T19:37:25.267Z,9.10
2022-11-20T19:39:58.956Z,10.43
2022-11-20T19:42:30.046Z,10.10
2022-11-20T19:45:03.505Z,12.77
2022-11-20T19:48:05.874Z,9.67
2022-11-20T19:50:25.811Z,12.83
2022-11-20T19:52:59.023Z,12.60
2022-11-20T19:55:33.311Z,10.03
2022-11-20T19:58:05.268Z,10.03
2022-11-20T20:00:38.945Z,10.87
2022-11-20T20:03:09.719Z,9.93
2022-11-20T20:05:40.484Z,11.23
2022-11-20T20:08:14.125Z,10.10
2022-11-20T20:10:47.644Z,10.27
2022-11-20T20:13:18.656Z,11.50
2022-11-20T20:15:52.189Z,9.57
2022-11-20T20:18:23.334Z,10.83
2022-11-20T20:20:54.106Z,10.53
2022-11-20T20:23:25.044Z,10.70
2022-11-20T20:25:56.110Z,9.70
2022-11-20T20:28:26.874Z,12.27
2022-11-20T20:31:09.735Z,13.80
2022-11-20T20:33:43.203Z,13.60
2022-11-20T20:36:15.857Z,19.03
2022-11-20T20:38:47.737Z,23.87
2022-11-20T20:41:22.361Z,24.13
2022-11-20T20:44:06.890Z,24.43
2022-11-20T20:46:40.372Z,25.60
2022-11-20T20:49:12.212Z,22.80
2022-11-20T20:51:43.016Z,23.80
2022-11-20T20:54:13.993Z,26.00
2022-11-20T20:56:44.786Z,21.87
2022-11-20T20:59:16.713Z,22.33
2022-11-20T21:01:50.360Z,22.13
2022-11-20T21:04:22.269Z,22.07
2022-11-20T21:06:55.466Z,23.60
2022-11-20T21:09:26.263Z,22.30
2022-11-20T21:11:57.147Z,22.30
2022-11-20T21:14:27.972Z,23.30
2022-11-20T21:17:01.483Z,22.20
2022-11-20T21:19:32.457Z,22.70
2022-11-20T21:22:00.700Z,22.00
2022-11-20T21:24:36.114Z,23.53
2022-11-20T21:27:08.332Z,24.47
2022-11-20T21:29:40.800Z,22.90
2022-11-20T21:32:16.289Z,22.50
2022-11-20T21:34:47.092Z,21.20
2022-11-20T21:37:17.826Z,21.20
2022-11-20T21:39:51.823Z,25.83
2022-11-20T21:42:22.578Z,23.00
2022-11-20T21:44:53.554Z,24.03
2022-11-20T21:47:27.009Z,24.27
2022-11-20T21:49:57.857Z,24.77
2022-11-20T21:52:28.552Z,20.47
2022-11-20T21:54:59.766Z,21.17
2022-11-20T21:57:30.528Z,21.40
2022-11-20T22:00:02.075Z,19.97
2022-11-20T22:02:35.774Z,19.97
2022-11-20T22:05:07.086Z,21.53
2022-11-20T22:07:38.012Z,19.17
2022-11-20T22:10:12.111Z,21.03
2022-11-20T22:12:46.520Z,23.20
2022-11-20T22:15:27.989Z,25.10
2022-11-20T22:18:18.063Z,26.87
2022-11-20T22:20:49.111Z,27.80
2022-11-20T22:23:19.844Z,27.13
2022-11-20T22:25:53.457Z,26.77
2022-11-20T22:28:24.771Z,22.77
2022-11-20T22:30:55.501Z,23.07
2022-11-20T22:33:28.853Z,21.80
2022-11-20T22:36:08.429Z,23.30
2022-11-20T22:38:40.102Z,22.73
2022-11-20T22:41:13.043Z,23.00
2022-11-20T22:43:44.734Z,23.30
2022-11-20T22:46:17.072Z,22.63
2022-11-20T22:48:53.349Z,19.17
2022-11-20T22:51:25.529Z,21.93
2022-11-20T22:53:56.702Z,19.50
2022-11-20T22:56:28.273Z,19.17
2022-11-20T22:58:59.077Z,19.77
2022-11-20T23:01:31.206Z,20.10
2022-11-20T23:04:06.694Z,21.50
2022-11-20T23:06:37.621Z,20.23
2022-11-20T23:09:12.745Z,19.87
2022-11-20T23:11:43.630Z,19.53
2022-11-20T23:14:23.692Z,18.00
2022-11-20T23:17:00.026Z,17.90
2022-11-20T23:19:36.467Z,17.40
2022-11-20T23:22:07.370Z,18.53
2022-11-20T23:24:45.951Z,17.90
2022-11-20T23:27:19.996Z,18.37
2022-11-20T23:29:50.813Z,18.30
2022-11-20T23:32:21.823Z,19.20
2022-11-20T23:34:55.214Z,16.40
2022-11-20T23:37:26.027Z,18.40
2022-11-20T23:39:59.964Z,18.90
2022-11-20T23:42:30.695Z,18.60
2022-11-20T23:45:01.503Z,18.10
2022-11-20T23:47:32.358Z,19.13
2022-11-20T23:50:05.841Z,18.87
2022-11-20T23:52:37.086Z,19.10
2022-11-20T23:55:09.143Z,17.57
2022-11-20T23:57:40.262Z,16.13
